sensor_id;sensor_type;location;lat;lon;timestamp;P1;durP1;ratioP1;P2;durP2;ratioP2
13683;SDS011;6914;53.552;9.908;2022-11-04T00:01:36;9.33;;;5.07;;
13683;SDS011;6914;53.552;9.908;2022-11-04T00:04:05;9.77;;;5.80;;
13683;SDS011;6914;53.552;9.908;2022-11-04T00:06:33;8.73;;;5.30;;
13683;SDS011;6914;53.552;9.908;2022-11-04T00:09:01;10.27;;;6.10;;
13683;SDS011;6914;53.552;9.908;2022-11-04T00:11:29;8.23;;;4.87;;
13683;SDS011;6914;53.552;9.908;2022-11-04T00:14:14;16.20;;;6.07;;
13683;SDS011;6914;53.552;9.908;2022-11-04T00:16:42;14.37;;;6.07;;
13683;SDS011;6914;53.552;9.908;2022-11-04T00:19:27;5.50;;;5.00;;
13683;SDS011;6914;53.552;9.908;2022-11-04T00:22:15;14.70;;;5.87;;
13683;SDS011;6914;53.552;9.908;2022-11-04T00:25:00;8.20;;;5.63;;
13683;SDS011;6914;53.552;9.908;2022-11-04T00:27:44;11.10;;;7.10;;
13683;SDS011;6914;53.552;9.908;2022-11-04T00:30:28;8.63;;;6.50;;
13683;SDS011;6914;53.552;9.908;2022-11-04T00:32:54;7.83;;;6.70;;
13683;SDS011;6914;53.552;9.908;2022-11-04T00:35:38;16.20;;;6.93;;
13683;SDS011;6914;53.552;9.908;2022-11-04T00:38:07;7.40;;;6.60;;
13683;SDS011;6914;53.552;9.908;2022-11-04T00:40:33;10.97;;;6.00;;
13683;SDS011;6914;53.552;9.908;2022-11-04T00:43:00;8.90;;;6.20;;
13683;SDS011;6914;53.552;9.908;2022-11-04T00:45:27;7.40;;;6.50;;
13683;SDS011;6914;53.552;9.908;2022-11-04T00:47:54;9.60;;;6.53;;
13683;SDS011;6914;53.552;9.908;2022-11-04T00:50:20;17.63;;;6.20;;
13683;SDS011;6914;53.552;9.908;2022-11-04T00:52:47;15.63;;;6.40;;
13683;SDS011;6914;53.552;9.908;2022-11-04T00:55:15;12.00;;;6.23;;
13683;SDS011;6914;53.552;9.908;2022-11-04T00:57:42;10.03;;;5.63;;
13683;SDS011;6914;53.552;9.908;2022-11-04T01:00:09;10.93;;;6.47;;
13683;SDS011;6914;53.552;9.908;2022-11-04T01:02:37;12.33;;;6.63;;
13683;SDS011;6914;53.552;9.908;2022-11-04T01:05:04;11.10;;;6.13;;
13683;SDS011;6914;53.552;9.908;2022-11-04T01:07:31;19.80;;;7.27;;
13683;SDS011;6914;53.552;9.908;2022-11-04T01:09:58;11.53;;;6.00;;
13683;SDS011;6914;53.552;9.908;2022-11-04T01:12:26;8.13;;;6.33;;
13683;SDS011;6914;53.552;9.908;2022-11-04T01:14:53;15.83;;;6.10;;
13683;SDS011;6914;53.552;9.908;2022-11-04T01:17:20;8.03;;;6.67;;
13683;SDS011;6914;53.552;9.908;2022-11-04T01:19:47;9.23;;;7.00;;
13683;SDS011;6914;53.552;9.908;2022-11-04T01:22:13;10.60;;;6.77;;
13683;SDS011;6914;53.552;9.908;2022-11-04T01:24:40;17.37;;;6.60;;
13683;SDS011;6914;53.552;9.908;2022-11-04T01:27:07;13.93;;;6.40;;
13683;SDS011;6914;53.552;9.908;2022-11-04T01:29:35;6.93;;;6.27;;
13683;SDS011;6914;53.552;9.908;2022-11-04T01:32:02;14.27;;;6.77;;
13683;SDS011;6914;53.552;9.908;2022-11-04T01:34:29;14.70;;;7.57;;
13683;SDS011;6914;53.552;9.908;2022-11-04T01:36:56;8.00;;;6.50;;
13683;SDS011;6914;53.552;9.908;2022-11-04T01:39:23;23.20;;;6.83;;
13683;SDS011;6914;53.552;9.908;2022-11-04T01:41:50;19.27;;;8.00;;
13683;SDS011;6914;53.552;9.908;2022-11-04T01:47:13;17.10;;;6.87;;
13683;SDS011;6914;53.552;9.908;2022-11-04T01:49:42;8.43;;;6.17;;
13683;SDS011;6914;53.552;9.908;2022-11-04T01:52:12;10.40;;;6.30;;
13683;SDS011;6914;53.552;9.908;2022-11-04T01:54:44;12.90;;;6.47;;
13683;SDS011;6914;53.552;9.908;2022-11-04T01:57:15;15.53;;;6.83;;
13683;SDS011;6914;53.552;9.908;2022-11-04T01:59:46;9.13;;;6.07;;
13683;SDS011;6914;53.552;9.908;2022-11-04T02:02:13;9.87;;;6.10;;
13683;SDS011;6914;53.552;9.908;2022-11-04T02:04:39;13.07;;;5.77;;
13683;SDS011;6914;53.552;9.908;2022-11-04T02:07:08;13.97;;;5.93;;
13683;SDS011;6914;53.552;9.908;2022-11-04T02:09:36;9.40;;;6.40;;
13683;SDS011;6914;53.552;9.908;2022-11-04T02:12:05;13.27;;;5.93;;
13683;SDS011;6914;53.552;9.908;2022-11-04T02:14:50;6.00;;;5.23;;
13683;SDS011;6914;53.552;9.908;2022-11-04T02:17:30;6.47;;;5.30;;
13683;SDS011;6914;53.552;9.908;2022-11-04T02:20:13;10.50;;;6.40;;
13683;SDS011;6914;53.552;9.908;2022-11-04T02:23:12;14.63;;;6.00;;
13683;SDS011;6914;53.552;9.908;2022-11-04T02:29:14;12.07;;;6.07;;
13683;SDS011;6914;53.552;9.908;2022-11-04T02:31:53;7.10;;;6.50;;
13683;SDS011;6914;53.552;9.908;2022-11-04T02:34:29;12.03;;;7.10;;
13683;SDS011;6914;53.552;9.908;2022-11-04T02:37:05;9.83;;;6.07;;
13683;SDS011;6914;53.552;9.908;2022-11-04T02:39:40;12.30;;;6.53;;
13683;SDS011;6914;53.552;9.908;2022-11-04T02:42:17;11.10;;;7.57;;
13683;SDS011;6914;53.552;9.908;2022-11-04T02:44:54;11.80;;;6.27;;
13683;SDS011;6914;53.552;9.908;2022-11-04T02:47:32;7.97;;;7.00;;
13683;SDS011;6914;53.552;9.908;2022-11-04T02:50:04;9.07;;;6.47;;
13683;SDS011;6914;53.552;9.908;2022-11-04T02:52:38;15.63;;;7.80;;
13683;SDS011;6914;53.552;9.908;2022-11-04T02:55:10;8.77;;;8.00;;
13683;SDS011;6914;53.552;9.908;2022-11-04T02:57:41;12.00;;;7.37;;
13683;SDS011;6914;53.552;9.908;2022-11-04T03:00:12;11.00;;;7.53;;
13683;SDS011;6914;53.552;9.908;2022-11-04T03:02:45;14.50;;;7.43;;
13683;SDS011;6914;53.552;9.908;2022-11-04T03:05:19;10.87;;;7.67;;
13683;SDS011;6914;53.552;9.908;2022-11-04T03:07:50;9.83;;;6.90;;
13683;SDS011;6914;53.552;9.908;2022-11-04T03:10:21;15.43;;;7.70;;
13683;SDS011;6914;53.552;9.908;2022-11-04T03:12:53;11.93;;;7.20;;
13683;SDS011;6914;53.552;9.908;2022-11-04T03:15:27;12.60;;;8.70;;
13683;SDS011;6914;53.552;9.908;2022-11-04T03:17:58;10.23;;;7.60;;
13683;SDS011;6914;53.552;9.908;2022-11-04T03:20:32;7.93;;;7.30;;
13683;SDS011;6914;53.552;9.908;2022-11-04T03:23:01;10.50;;;7.87;;
13683;SDS011;6914;53.552;9.908;2022-11-04T03:25:30;12.30;;;8.37;;
13683;SDS011;6914;53.552;9.908;2022-11-04T03:28:03;11.13;;;8.30;;
13683;SDS011;6914;53.552;9.908;2022-11-04T03:30:38;13.70;;;8.60;;
13683;SDS011;6914;53.552;9.908;2022-11-04T03:33:10;10.70;;;8.60;;
13683;SDS011;6914;53.552;9.908;2022-11-04T03:35:43;8.60;;;7.53;;
13683;SDS011;6914;53.552;9.908;2022-11-04T03:38:10;11.63;;;8.70;;
13683;SDS011;6914;53.552;9.908;2022-11-04T03:40:36;15.27;;;8.27;;
13683;SDS011;6914;53.552;9.908;2022-11-04T03:43:06;14.50;;;9.03;;
13683;SDS011;6914;53.552;9.908;2022-11-04T03:45:37;12.70;;;8.80;;
13683;SDS011;6914;53.552;9.908;2022-11-04T03:48:04;14.30;;;9.63;;
13683;SDS011;6914;53.552;9.908;2022-11-04T03:50:32;10.97;;;9.57;;
13683;SDS011;6914;53.552;9.908;2022-11-04T03:53:05;9.73;;;8.83;;
13683;SDS011;6914;53.552;9.908;2022-11-04T03:55:34;9.53;;;8.80;;
13683;SDS011;6914;53.552;9.908;2022-11-04T03:58:09;12.27;;;9.43;;
13683;SDS011;6914;53.552;9.908;2022-11-04T04:00:48;11.63;;;8.13;;
13683;SDS011;6914;53.552;9.908;2022-11-04T04:03:24;10.07;;;9.00;;
13683;SDS011;6914;53.552;9.908;2022-11-04T04:05:56;11.23;;;8.70;;
13683;SDS011;6914;53.552;9.908;2022-11-04T04:08:32;22.23;;;7.97;;
13683;SDS011;6914;53.552;9.908;2022-11-04T04:11:04;10.10;;;8.10;;
13683;SDS011;6914;53.552;9.908;2022-11-04T04:13:36;8.30;;;7.47;;
13683;SDS011;6914;53.552;9.908;2022-11-04T04:16:12;7.10;;;6.60;;
13683;SDS011;6914;53.552;9.908;2022-11-04T04:18:43;9.10;;;7.97;;
13683;SDS011;6914;53.552;9.908;2022-11-04T04:21:16;7.07;;;6.47;;
13683;SDS011;6914;53.552;9.908;2022-11-04T04:23:46;5.23;;;4.73;;
13683;SDS011;6914;53.552;9.908;2022-11-04T04:26:33;6.00;;;5.40;;
13683;SDS011;6914;53.552;9.908;2022-11-04T04:29:20;5.10;;;4.80;;
13683;SDS011;6914;53.552;9.908;2022-11-04T04:31:50;6.20;;;4.70;;
13683;SDS011;6914;53.552;9.908;2022-11-04T04:34:22;4.40;;;4.10;;
13683;SDS011;6914;53.552;9.908;2022-11-04T04:36:53;6.93;;;4.20;;
13683;SDS011;6914;53.552;9.908;2022-11-04T04:39:24;4.30;;;4.00;;
13683;SDS011;6914;53.552;9.908;2022-11-04T04:42:15;4.77;;;4.43;;
13683;SDS011;6914;53.552;9.908;2022-11-04T04:45:02;7.77;;;3.30;;
13683;SDS011;6914;53.552;9.908;2022-11-04T04:47:36;4.53;;;2.90;;
13683;SDS011;6914;53.552;9.908;2022-11-04T04:50:07;2.93;;;2.73;;
13683;SDS011;6914;53.552;9.908;2022-11-04T04:52:36;3.03;;;2.83;;
13683;SDS011;6914;53.552;9.908;2022-11-04T04:55:05;2.97;;;2.87;;
13683;SDS011;6914;53.552;9.908;2022-11-04T04:57:33;2.33;;;2.23;;
13683;SDS011;6914;53.552;9.908;2022-11-04T05:00:00;2.30;;;2.10;;
13683;SDS011;6914;53.552;9.908;2022-11-04T05:02:27;3.63;;;2.10;;
13683;SDS011;6914;53.552;9.908;2022-11-04T05:04:55;2.90;;;2.80;;
13683;SDS011;6914;53.552;9.908;2022-11-04T05:07:23;2.33;;;2.23;;
13683;SDS011;6914;53.552;9.908;2022-11-04T05:09:50;5.20;;;2.40;;
13683;SDS011;6914;53.552;9.908;2022-11-04T05:12:17;2.57;;;2.37;;
13683;SDS011;6914;53.552;9.908;2022-11-04T05:14:44;3.57;;;1.63;;
13683;SDS011;6914;53.552;9.908;2022-11-04T05:17:11;2.10;;;2.00;;
13683;SDS011;6914;53.552;9.908;2022-11-04T05:19:37;2.23;;;2.13;;
13683;SDS011;6914;53.552;9.908;2022-11-04T05:22:06;2.20;;;2.10;;
13683;SDS011;6914;53.552;9.908;2022-11-04T05:24:32;1.97;;;1.87;;
13683;SDS011;6914;53.552;9.908;2022-11-04T05:26:59;2.17;;;2.07;;
13683;SDS011;6914;53.552;9.908;2022-11-04T05:29:26;2.07;;;1.93;;
13683;SDS011;6914;53.552;9.908;2022-11-04T05:31:53;2.53;;;2.33;;
13683;SDS011;6914;53.552;9.908;2022-11-04T05:34:20;2.83;;;2.63;;
13683;SDS011;6914;53.552;9.908;2022-11-04T05:36:46;2.43;;;2.33;;
13683;SDS011;6914;53.552;9.908;2022-11-04T05:39:14;2.00;;;1.90;;
13683;SDS011;6914;53.552;9.908;2022-11-04T05:41:41;2.90;;;2.80;;
13683;SDS011;6914;53.552;9.908;2022-11-04T05:44:08;2.90;;;2.77;;
13683;SDS011;6914;53.552;9.908;2022-11-04T05:46:36;2.67;;;2.50;;
13683;SDS011;6914;53.552;9.908;2022-11-04T05:49:03;2.87;;;2.77;;
13683;SDS011;6914;53.552;9.908;2022-11-04T05:51:30;4.07;;;3.13;;
13683;SDS011;6914;53.552;9.908;2022-11-04T05:53:57;2.80;;;2.70;;
13683;SDS011;6914;53.552;9.908;2022-11-04T05:56:25;3.37;;;3.17;;
13683;SDS011;6914;53.552;9.908;2022-11-04T05:58:52;4.13;;;3.73;;
13683;SDS011;6914;53.552;9.908;2022-11-04T06:01:23;2.90;;;2.80;;
13683;SDS011;6914;53.552;9.908;2022-11-04T06:03:53;3.70;;;3.40;;
13683;SDS011;6914;53.552;9.908;2022-11-04T06:06:20;3.40;;;3.30;;
13683;SDS011;6914;53.552;9.908;2022-11-04T06:08:49;3.60;;;3.50;;
13683;SDS011;6914;53.552;9.908;2022-11-04T06:11:16;4.00;;;3.10;;
13683;SDS011;6914;53.552;9.908;2022-11-04T06:13:45;4.87;;;3.30;;
13683;SDS011;6914;53.552;9.908;2022-11-04T06:16:12;2.80;;;2.60;;
13683;SDS011;6914;53.552;9.908;2022-11-04T06:18:38;3.97;;;3.73;;
13683;SDS011;6914;53.552;9.908;2022-11-04T06:21:09;3.13;;;3.00;;
13683;SDS011;6914;53.552;9.908;2022-11-04T06:23:49;3.80;;;3.63;;
13683;SDS011;6914;53.552;9.908;2022-11-04T06:26:16;3.93;;;3.73;;
13683;SDS011;6914;53.552;9.908;2022-11-04T06:28:45;3.57;;;3.43;;
13683;SDS011;6914;53.552;9.908;2022-11-04T06:31:12;4.57;;;3.07;;
13683;SDS011;6914;53.552;9.908;2022-11-04T06:33:40;3.83;;;3.63;;
13683;SDS011;6914;53.552;9.908;2022-11-04T06:36:07;4.00;;;3.80;;
13683;SDS011;6914;53.552;9.908;2022-11-04T06:38:37;4.90;;;4.10;;
13683;SDS011;6914;53.552;9.908;2022-11-04T06:41:05;3.30;;;3.10;;
13683;SDS011;6914;53.552;9.908;2022-11-04T06:43:33;4.23;;;4.03;;
13683;SDS011;6914;53.552;9.908;2022-11-04T06:46:01;6.00;;;4.43;;
13683;SDS011;6914;53.552;9.908;2022-11-04T06:48:29;4.63;;;4.20;;
13683;SDS011;6914;53.552;9.908;2022-11-04T06:50:56;4.57;;;4.37;;
13683;SDS011;6914;53.552;9.908;2022-11-04T06:53:23;7.20;;;5.20;;
13683;SDS011;6914;53.552;9.908;2022-11-04T06:55:51;6.33;;;4.73;;
13683;SDS011;6914;53.552;9.908;2022-11-04T06:58:18;5.90;;;5.60;;
13683;SDS011;6914;53.552;9.908;2022-11-04T07:00:49;5.23;;;4.90;;
13683;SDS011;6914;53.552;9.908;2022-11-04T07:03:18;8.67;;;5.20;;
13683;SDS011;6914;53.552;9.908;2022-11-04T07:05:45;5.77;;;5.30;;
13683;SDS011;6914;53.552;9.908;2022-11-04T07:08:12;5.90;;;5.60;;
13683;SDS011;6914;53.552;9.908;2022-11-04T07:10:39;6.30;;;5.90;;
13683;SDS011;6914;53.552;9.908;2022-11-04T07:13:06;6.57;;;5.73;;
13683;SDS011;6914;53.552;9.908;2022-11-04T07:15:32;11.53;;;6.17;;
13683;SDS011;6914;53.552;9.908;2022-11-04T07:17:59;6.17;;;5.67;;
13683;SDS011;6914;53.552;9.908;2022-11-04T07:20:28;5.87;;;5.47;;
13683;SDS011;6914;53.552;9.908;2022-11-04T07:22:55;6.43;;;5.93;;
13683;SDS011;6914;53.552;9.908;2022-11-04T07:25:21;6.43;;;5.93;;
13683;SDS011;6914;53.552;9.908;2022-11-04T07:27:48;6.40;;;5.90;;
13683;SDS011;6914;53.552;9.908;2022-11-04T07:30:15;5.63;;;5.33;;
13683;SDS011;6914;53.552;9.908;2022-11-04T07:32:44;5.93;;;5.60;;
13683;SDS011;6914;53.552;9.908;2022-11-04T07:35:11;6.77;;;6.23;;
13683;SDS011;6914;53.552;9.908;2022-11-04T07:37:40;13.10;;;6.90;;
13683;SDS011;6914;53.552;9.908;2022-11-04T07:40:07;7.07;;;6.33;;
13683;SDS011;6914;53.552;9.908;2022-11-04T07:42:35;6.60;;;6.10;;
13683;SDS011;6914;53.552;9.908;2022-11-04T07:45:02;6.87;;;6.37;;
13683;SDS011;6914;53.552;9.908;2022-11-04T07:47:30;7.67;;;7.07;;
13683;SDS011;6914;53.552;9.908;2022-11-04T07:49:56;7.63;;;7.13;;
13683;SDS011;6914;53.552;9.908;2022-11-04T07:52:23;7.63;;;7.13;;
13683;SDS011;6914;53.552;9.908;2022-11-04T07:54:52;8.33;;;7.70;;
13683;SDS011;6914;53.552;9.908;2022-11-04T07:57:18;7.40;;;6.90;;
13683;SDS011;6914;53.552;9.908;2022-11-04T07:59:46;9.40;;;8.30;;
13683;SDS011;6914;53.552;9.908;2022-11-04T08:02:13;7.47;;;6.87;;
13683;SDS011;6914;53.552;9.908;2022-11-04T08:04:40;12.37;;;7.80;;
13683;SDS011;6914;53.552;9.908;2022-11-04T08:07:07;8.13;;;7.33;;
13683;SDS011;6914;53.552;9.908;2022-11-04T08:09:34;7.77;;;7.27;;
13683;SDS011;6914;53.552;9.908;2022-11-04T08:12:03;8.87;;;7.57;;
13683;SDS011;6914;53.552;9.908;2022-11-04T08:14:30;7.20;;;6.60;;
13683;SDS011;6914;53.552;9.908;2022-11-04T08:16:57;7.13;;;6.60;;
13683;SDS011;6914;53.552;9.908;2022-11-04T08:19:24;7.70;;;7.00;;
13683;SDS011;6914;53.552;9.908;2022-11-04T08:21:51;8.10;;;7.30;;
13683;SDS011;6914;53.552;9.908;2022-11-04T08:24:18;7.83;;;7.00;;
13683;SDS011;6914;53.552;9.908;2022-11-04T08:26:45;7.53;;;7.03;;
13683;SDS011;6914;53.552;9.908;2022-11-04T08:29:14;7.67;;;7.17;;
13683;SDS011;6914;53.552;9.908;2022-11-04T08:31:41;6.67;;;6.20;;
13683;SDS011;6914;53.552;9.908;2022-11-04T08:34:08;8.77;;;7.87;;
13683;SDS011;6914;53.552;9.908;2022-11-04T08:36:35;8.53;;;7.80;;
13683;SDS011;6914;53.552;9.908;2022-11-04T08:39:05;7.70;;;6.47;;
13683;SDS011;6914;53.552;9.908;2022-11-04T08:41:32;7.37;;;6.80;;
13683;SDS011;6914;53.552;9.908;2022-11-04T08:44:00;13.43;;;6.23;;
13683;SDS011;6914;53.552;9.908;2022-11-04T08:46:30;6.83;;;6.23;;
13683;SDS011;6914;53.552;9.908;2022-11-04T08:48:58;7.77;;;6.77;;
13683;SDS011;6914;53.552;9.908;2022-11-04T08:51:26;6.87;;;6.43;;
13683;SDS011;6914;53.552;9.908;2022-11-04T08:53:53;7.33;;;6.73;;
13683;SDS011;6914;53.552;9.908;2022-11-04T08:56:21;6.77;;;6.07;;
13683;SDS011;6914;53.552;9.908;2022-11-04T08:58:50;8.20;;;6.87;;
13683;SDS011;6914;53.552;9.908;2022-11-04T09:01:17;4.90;;;4.70;;
13683;SDS011;6914;53.552;9.908;2022-11-04T09:03:47;6.97;;;6.33;;
13683;SDS011;6914;53.552;9.908;2022-11-04T09:06:15;8.70;;;5.90;;
13683;SDS011;6914;53.552;9.908;2022-11-04T09:08:44;7.20;;;6.70;;
13683;SDS011;6914;53.552;9.908;2022-11-04T09:11:11;6.40;;;5.77;;
13683;SDS011;6914;53.552;9.908;2022-11-04T09:13:40;6.03;;;5.57;;
13683;SDS011;6914;53.552;9.908;2022-11-04T09:16:08;6.63;;;6.17;;
13683;SDS011;6914;53.552;9.908;2022-11-04T09:18:35;5.87;;;5.47;;
13683;SDS011;6914;53.552;9.908;2022-11-04T09:21:04;5.23;;;4.93;;
13683;SDS011;6914;53.552;9.908;2022-11-04T09:23:33;5.13;;;4.83;;
13683;SDS011;6914;53.552;9.908;2022-11-04T09:26:02;5.17;;;4.43;;
13683;SDS011;6914;53.552;9.908;2022-11-04T09:28:30;4.30;;;4.10;;
13683;SDS011;6914;53.552;9.908;2022-11-04T09:30:57;5.03;;;3.73;;
13683;SDS011;6914;53.552;9.908;2022-11-04T09:33:23;4.93;;;4.00;;
13683;SDS011;6914;53.552;9.908;2022-11-04T09:35:53;4.03;;;3.80;;
13683;SDS011;6914;53.552;9.908;2022-11-04T09:38:22;4.90;;;4.53;;
13683;SDS011;6914;53.552;9.908;2022-11-04T09:40:49;6.43;;;4.10;;
13683;SDS011;6914;53.552;9.908;2022-11-04T09:43:22;5.07;;;4.87;;
13683;SDS011;6914;53.552;9.908;2022-11-04T09:45:56;5.93;;;4.13;;
13683;SDS011;6914;53.552;9.908;2022-11-04T09:48:25;4.43;;;4.23;;
13683;SDS011;6914;53.552;9.908;2022-11-04T09:50:57;4.37;;;4.17;;
13683;SDS011;6914;53.552;9.908;2022-11-04T09:53:31;4.63;;;4.20;;
13683;SDS011;6914;53.552;9.908;2022-11-04T09:56:05;6.13;;;4.80;;
13683;SDS011;6914;53.552;9.908;2022-11-04T09:58:38;5.30;;;4.80;;
13683;SDS011;6914;53.552;9.908;2022-11-04T10:01:08;5.93;;;4.73;;
13683;SDS011;6914;53.552;9.908;2022-11-04T10:03:47;5.07;;;4.73;;
13683;SDS011;6914;53.552;9.908;2022-11-04T10:06:30;4.43;;;4.20;;
13683;SDS011;6914;53.552;9.908;2022-11-04T10:09:07;11.93;;;4.03;;
13683;SDS011;6914;53.552;9.908;2022-11-04T10:11:49;3.70;;;3.50;;
13683;SDS011;6914;53.552;9.908;2022-11-04T10:14:27;3.73;;;3.43;;
13683;SDS011;6914;53.552;9.908;2022-11-04T10:17:07;3.20;;;3.10;;
13683;SDS011;6914;53.552;9.908;2022-11-04T10:19:51;4.20;;;3.90;;
13683;SDS011;6914;53.552;9.908;2022-11-04T10:22:27;3.70;;;3.50;;
13683;SDS011;6914;53.552;9.908;2022-11-04T10:25:00;3.07;;;2.97;;
13683;SDS011;6914;53.552;9.908;2022-11-04T10:27:33;2.90;;;2.70;;
13683;SDS011;6914;53.552;9.908;2022-11-04T10:30:06;2.87;;;2.77;;
13683;SDS011;6914;53.552;9.908;2022-11-04T10:32:43;2.57;;;2.47;;
13683;SDS011;6914;53.552;9.908;2022-11-04T10:35:25;2.30;;;2.00;;
13683;SDS011;6914;53.552;9.908;2022-11-04T10:37:57;2.60;;;2.50;;
13683;SDS011;6914;53.552;9.908;2022-11-04T10:40:39;5.97;;;2.43;;
13683;SDS011;6914;53.552;9.908;2022-11-04T10:43:09;3.93;;;1.77;;
13683;SDS011;6914;53.552;9.908;2022-11-04T10:45:42;2.20;;;2.10;;
13683;SDS011;6914;53.552;9.908;2022-11-04T10:48:18;2.03;;;1.93;;
13683;SDS011;6914;53.552;9.908;2022-11-04T10:50:51;2.13;;;1.57;;
13683;SDS011;6914;53.552;9.908;2022-11-04T10:53:21;2.37;;;2.27;;
13683;SDS011;6914;53.552;9.908;2022-11-04T10:55:53;1.73;;;1.63;;
13683;SDS011;6914;53.552;9.908;2022-11-04T10:58:26;2.10;;;1.87;;
13683;SDS011;6914;53.552;9.908;2022-11-04T11:00:54;9.20;;;1.83;;
13683;SDS011;6914;53.552;9.908;2022-11-04T11:03:23;2.50;;;1.37;;
13683;SDS011;6914;53.552;9.908;2022-11-04T11:05:52;1.93;;;1.83;;
13683;SDS011;6914;53.552;9.908;2022-11-04T11:08:35;1.83;;;1.73;;
13683;SDS011;6914;53.552;9.908;2022-11-04T11:11:05;2.17;;;1.43;;
13683;SDS011;6914;53.552;9.908;2022-11-04T11:13:35;2.50;;;1.17;;
13683;SDS011;6914;53.552;9.908;2022-11-04T11:16:07;3.60;;;1.23;;
13683;SDS011;6914;53.552;9.908;2022-11-04T11:18:37;1.70;;;1.60;;
13683;SDS011;6914;53.552;9.908;2022-11-04T11:21:07;1.13;;;1.13;;
13683;SDS011;6914;53.552;9.908;2022-11-04T11:23:40;2.70;;;1.50;;
13683;SDS011;6914;53.552;9.908;2022-11-04T11:26:10;2.70;;;1.63;;
13683;SDS011;6914;53.552;9.908;2022-11-04T11:28:39;2.10;;;2.00;;
13683;SDS011;6914;53.552;9.908;2022-11-04T11:31:08;1.70;;;1.60;;
13683;SDS011;6914;53.552;9.908;2022-11-04T11:33:45;4.50;;;1.37;;
13683;SDS011;6914;53.552;9.908;2022-11-04T11:36:17;2.00;;;1.13;;
13683;SDS011;6914;53.552;9.908;2022-11-04T11:38:57;0.90;;;0.83;;
13683;SDS011;6914;53.552;9.908;2022-11-04T11:41:30;1.67;;;0.80;;
13683;SDS011;6914;53.552;9.908;2022-11-04T11:44:02;3.40;;;0.90;;
13683;SDS011;6914;53.552;9.908;2022-11-04T11:46:32;2.90;;;0.87;;
13683;SDS011;6914;53.552;9.908;2022-11-04T11:49:03;2.43;;;1.10;;
13683;SDS011;6914;53.552;9.908;2022-11-04T11:51:31;1.83;;;1.03;;
13683;SDS011;6914;53.552;9.908;2022-11-04T11:54:01;0.93;;;0.80;;
13683;SDS011;6914;53.552;9.908;2022-11-04T11:56:45;0.93;;;0.83;;
13683;SDS011;6914;53.552;9.908;2022-11-04T11:59:17;1.23;;;0.87;;
13683;SDS011;6914;53.552;9.908;2022-11-04T12:01:52;9.47;;;0.80;;
13683;SDS011;6914;53.552;9.908;2022-11-04T12:04:29;1.33;;;1.00;;
13683;SDS011;6914;53.552;9.908;2022-11-04T12:07:09;2.03;;;0.73;;
13683;SDS011;6914;53.552;9.908;2022-11-04T12:09:48;3.30;;;0.80;;
13683;SDS011;6914;53.552;9.908;2022-11-04T12:12:24;2.00;;;0.80;;
13683;SDS011;6914;53.552;9.908;2022-11-04T12:15:13;3.37;;;0.90;;
13683;SDS011;6914;53.552;9.908;2022-11-04T12:17:54;4.87;;;0.90;;
13683;SDS011;6914;53.552;9.908;2022-11-04T12:20:44;2.47;;;1.00;;
13683;SDS011;6914;53.552;9.908;2022-11-04T12:23:19;3.13;;;0.80;;
13683;SDS011;6914;53.552;9.908;2022-11-04T12:25:55;1.50;;;0.80;;
13683;SDS011;6914;53.552;9.908;2022-11-04T12:28:35;1.60;;;1.00;;
13683;SDS011;6914;53.552;9.908;2022-11-04T12:31:16;4.93;;;0.90;;
13683;SDS011;6914;53.552;9.908;2022-11-04T12:33:50;3.57;;;0.80;;
13683;SDS011;6914;53.552;9.908;2022-11-04T12:36:31;5.93;;;1.17;;
13683;SDS011;6914;53.552;9.908;2022-11-04T12:39:22;4.60;;;0.90;;
13683;SDS011;6914;53.552;9.908;2022-11-04T12:42:00;2.73;;;0.90;;
13683;SDS011;6914;53.552;9.908;2022-11-04T12:44:39;2.73;;;0.90;;
13683;SDS011;6914;53.552;9.908;2022-11-04T12:47:16;1.70;;;1.00;;
13683;SDS011;6914;53.552;9.908;2022-11-04T12:49:54;3.00;;;1.13;;
13683;SDS011;6914;53.552;9.908;2022-11-04T12:52:49;5.77;;;1.00;;
13683;SDS011;6914;53.552;9.908;2022-11-04T12:55:31;2.90;;;1.10;;
13683;SDS011;6914;53.552;9.908;2022-11-04T12:58:09;2.00;;;0.93;;
13683;SDS011;6914;53.552;9.908;2022-11-04T13:00:46;2.20;;;1.03;;
13683;SDS011;6914;53.552;9.908;2022-11-04T13:03:17;3.63;;;1.00;;
13683;SDS011;6914;53.552;9.908;2022-11-04T13:05:55;4.30;;;1.17;;
13683;SDS011;6914;53.552;9.908;2022-11-04T13:08:30;6.20;;;0.70;;
13683;SDS011;6914;53.552;9.908;2022-11-04T13:11:05;9.27;;;1.40;;
13683;SDS011;6914;53.552;9.908;2022-11-04T13:13:46;6.53;;;1.20;;
13683;SDS011;6914;53.552;9.908;2022-11-04T13:16:20;2.93;;;0.70;;
13683;SDS011;6914;53.552;9.908;2022-11-04T13:18:47;2.47;;;1.13;;
13683;SDS011;6914;53.552;9.908;2022-11-04T13:21:15;3.30;;;1.20;;
13683;SDS011;6914;53.552;9.908;2022-11-04T13:23:49;7.13;;;1.40;;
13683;SDS011;6914;53.552;9.908;2022-11-04T13:26:19;4.50;;;1.13;;
13683;SDS011;6914;53.552;9.908;2022-11-04T13:28:50;4.60;;;0.90;;
13683;SDS011;6914;53.552;9.908;2022-11-04T13:31:27;4.00;;;0.70;;
13683;SDS011;6914;53.552;9.908;2022-11-04T13:34:01;3.03;;;1.23;;
13683;SDS011;6914;53.552;9.908;2022-11-04T13:36:36;7.77;;;1.57;;
13683;SDS011;6914;53.552;9.908;2022-11-04T13:39:12;1.67;;;0.77;;
13683;SDS011;6914;53.552;9.908;2022-11-04T13:41:57;6.83;;;0.93;;
13683;SDS011;6914;53.552;9.908;2022-11-04T13:44:41;3.53;;;0.87;;
13683;SDS011;6914;53.552;9.908;2022-11-04T13:47:15;3.03;;;1.07;;
13683;SDS011;6914;53.552;9.908;2022-11-04T13:49:47;6.57;;;1.67;;
13683;SDS011;6914;53.552;9.908;2022-11-04T13:52:16;2.40;;;0.93;;
13683;SDS011;6914;53.552;9.908;2022-11-04T13:54:44;6.40;;;1.50;;
13683;SDS011;6914;53.552;9.908;2022-11-04T13:57:18;8.70;;;1.13;;
13683;SDS011;6914;53.552;9.908;2022-11-04T14:00:05;9.07;;;1.63;;
13683;SDS011;6914;53.552;9.908;2022-11-04T14:02:45;2.93;;;1.13;;
13683;SDS011;6914;53.552;9.908;2022-11-04T14:08:18;6.93;;;1.20;;
13683;SDS011;6914;53.552;9.908;2022-11-04T14:10:56;4.30;;;1.00;;
13683;SDS011;6914;53.552;9.908;2022-11-04T14:16:38;3.10;;;0.93;;
13683;SDS011;6914;53.552;9.908;2022-11-04T14:22:28;4.00;;;0.90;;
13683;SDS011;6914;53.552;9.908;2022-11-04T14:25:01;3.87;;;0.97;;
13683;SDS011;6914;53.552;9.908;2022-11-04T14:27:48;6.07;;;1.00;;
13683;SDS011;6914;53.552;9.908;2022-11-04T14:33:26;4.93;;;1.07;;
13683;SDS011;6914;53.552;9.908;2022-11-04T14:36:12;5.10;;;0.90;;
13683;SDS011;6914;53.552;9.908;2022-11-04T14:38:59;3.87;;;0.90;;
13683;SDS011;6914;53.552;9.908;2022-11-04T14:41:48;1.90;;;1.23;;
13683;SDS011;6914;53.552;9.908;2022-11-04T14:44:24;3.03;;;1.17;;
13683;SDS011;6914;53.552;9.908;2022-11-04T14:46:56;8.93;;;1.20;;
13683;SDS011;6914;53.552;9.908;2022-11-04T14:49:35;7.00;;;1.07;;
13683;SDS011;6914;53.552;9.908;2022-11-04T14:52:13;3.23;;;0.97;;
13683;SDS011;6914;53.552;9.908;2022-11-04T14:54:46;9.47;;;1.27;;
13683;SDS011;6914;53.552;9.908;2022-11-04T14:57:15;16.40;;;1.00;;
13683;SDS011;6914;53.552;9.908;2022-11-04T14:59:44;10.93;;;1.20;;
13683;SDS011;6914;53.552;9.908;2022-11-04T15:02:12;5.60;;;0.87;;
13683;SDS011;6914;53.552;9.908;2022-11-04T15:04:52;3.40;;;1.17;;
13683;SDS011;6914;53.552;9.908;2022-11-04T15:07:33;3.90;;;0.90;;
13683;SDS011;6914;53.552;9.908;2022-11-04T15:10:24;2.90;;;1.50;;
13683;SDS011;6914;53.552;9.908;2022-11-04T15:12:57;1.13;;;1.03;;
13683;SDS011;6914;53.552;9.908;2022-11-04T15:15:27;4.83;;;0.97;;
13683;SDS011;6914;53.552;9.908;2022-11-04T15:18:04;8.87;;;1.23;;
13683;SDS011;6914;53.552;9.908;2022-11-04T15:20:34;6.10;;;1.37;;
13683;SDS011;6914;53.552;9.908;2022-11-04T15:23:08;6.87;;;0.97;;
13683;SDS011;6914;53.552;9.908;2022-11-04T15:25:47;1.90;;;0.93;;
13683;SDS011;6914;53.552;9.908;2022-11-04T15:28:22;2.00;;;1.23;;
13683;SDS011;6914;53.552;9.908;2022-11-04T15:30:58;5.30;;;1.10;;
13683;SDS011;6914;53.552;9.908;2022-11-04T15:33:29;2.07;;;1.13;;
13683;SDS011;6914;53.552;9.908;2022-11-04T15:36:07;3.77;;;1.17;;
13683;SDS011;6914;53.552;9.908;2022-11-04T15:38:43;4.83;;;1.30;;
13683;SDS011;6914;53.552;9.908;2022-11-04T15:41:15;6.20;;;1.40;;
13683;SDS011;6914;53.552;9.908;2022-11-04T15:44:03;3.43;;;0.90;;
13683;SDS011;6914;53.552;9.908;2022-11-04T15:46:31;5.03;;;1.10;;